This is the latest recevied weather packets stored in our database for station/object KF7PIZ. If no packets are shown the sender has not sent any weather packets the latest 10 day(s).
| Time | Temp. | Humidity | Pressure | Rain* | Wind** | Luminosity | Snow |
|---|---|---|---|---|---|---|---|
| 1788593494 | 10° C | 73% | 1017.3 hPa | 0 mm | - | 0 W/m² | - |
| 1788593193 | 10° C | 73% | 1017.8 hPa | 0 mm | - | 0 W/m² | - |
| 1788592888 | 10° C | 73% | 1017.4 hPa | 0 mm | - | 0 W/m² | - |
| 1788592585 | 10° C | 73% | 1017.8 hPa | 0 mm | - | 0 W/m² | - |
| 1788592280 | 10° C | 72% | 1017.4 hPa | 0 mm | - | 0 W/m² | - |
| 1788591975 | 10.56° C | 72% | 1017.5 hPa | 0 mm | - | 0 W/m² | - |
| 1788591671 | 10.56° C | 72% | 1017.3 hPa | 0 mm | - | 0 W/m² | - |
| 1788591369 | 10.56° C | 71% | 1017.2 hPa | 0 mm | - | 0 W/m² | - |
| 1788591065 | 10.56° C | 71% | 1017.3 hPa | 0 mm | - | 0 W/m² | - |
| 1788590765 | 10.56° C | 70% | 1017.2 hPa | 0 mm | - | 0 W/m² | - |
| 1788590460 | 11.11° C | 69% | 1017.3 hPa | 0 mm | - | 0 W/m² | - |
| 1788590159 | 11.11° C | 68% | 1017.1 hPa | 0 mm | - | 0 W/m² | - |
| 1788589856 | 11.67° C | 66% | 1017.3 hPa | 0 mm | - | 0 W/m² | - |
| 1788589551 | 11.67° C | 65% | 1017 hPa | 0 mm | - | 0 W/m² | - |
| 1788589250 | 11.67° C | 66% | 1017.1 hPa | 0 mm | - | 0 W/m² | - |
| 1788588946 | 11.67° C | 65% | 1016.9 hPa | 0 mm | - | 0 W/m² | - |
| 1788588645 | 11.67° C | 66% | 1017 hPa | 0 mm | - | 0 W/m² | - |
| 1788588341 | 12.22° C | 64% | 1017 hPa | 0 mm | - | 0 W/m² | - |
| 1788587735 | 12.78° C | 61% | 1016.8 hPa | 0 mm | - | 0 W/m² | - |
| 1788587126 | 12.78° C | 61% | 1016.6 hPa | 0 mm | - | 0 W/m² | - |
| 1788586822 | 13.33° C | 61% | 1016.6 hPa | 0 mm | - | 0 W/m² | - |
| 1788586520 | 13.33° C | 60% | 1016.6 hPa | 0 mm | - | 0 W/m² | - |
| 1788586217 | 13.33° C | 60% | 1016.4 hPa | 0 mm | - | 0 W/m² | - |
| 1788564670 | 21.11° C | 41% | 1014.7 hPa | 0 mm | - | 32 W/m² | - |
| 1788564367 | 21.11° C | 40% | 1014.6 hPa | 0 mm | - | 33 W/m² | - |
* Rain latest hour (hover to see other rain measurements)
** Current wind speed in m/s (hover to see current wind gust speed)